sensor_id;sensor_type;location;lat;lon;timestamp;P1;durP1;ratioP1;P2;durP2;ratioP2
67675;SDS011;54456;48.436;10.028;2022-10-15T08:32:11;2.30;;;1.25;;
67675;SDS011;54456;48.436;10.028;2022-10-15T08:33:41;2.55;;;1.20;;
67675;SDS011;54456;48.436;10.028;2022-10-15T08:35:13;1.67;;;1.10;;
67675;SDS011;54456;48.436;10.028;2022-10-15T08:36:43;1.55;;;0.90;;
67675;SDS011;54456;48.436;10.028;2022-10-15T08:38:14;3.72;;;1.20;;
67675;SDS011;54456;48.436;10.028;2022-10-15T08:39:44;2.65;;;1.13;;
67675;SDS011;54456;48.436;10.028;2022-10-15T08:42:52;2.05;;;1.17;;
67675;SDS011;54456;48.436;10.028;2022-10-15T09:13:45;5.45;;;2.03;;
67675;SDS011;54456;48.436;10.028;2022-10-15T09:15:16;7.32;;;3.15;;
67675;SDS011;54456;48.436;10.028;2022-10-15T09:16:49;7.50;;;2.20;;
67675;SDS011;54456;48.436;10.028;2022-10-15T09:18:23;6.65;;;2.45;;
67675;SDS011;54456;48.436;10.028;2022-10-15T09:19:56;6.15;;;3.00;;
67675;SDS011;54456;48.436;10.028;2022-10-15T09:21:27;5.20;;;2.20;;
67675;SDS011;54456;48.436;10.028;2022-10-15T09:22:58;4.30;;;1.83;;
67675;SDS011;54456;48.436;10.028;2022-10-15T09:24:28;4.85;;;2.00;;
67675;SDS011;54456;48.436;10.028;2022-10-15T09:27:41;4.07;;;1.60;;
67675;SDS011;54456;48.436;10.028;2022-10-15T09:29:57;3.83;;;1.67;;
67675;SDS011;54456;48.436;10.028;2022-10-15T09:31:12;4.93;;;2.10;;
67675;SDS011;54456;48.436;10.028;2022-10-15T09:32:46;4.68;;;1.80;;
67675;SDS011;54456;48.436;10.028;2022-10-15T09:34:20;3.30;;;1.63;;
67675;SDS011;54456;48.436;10.028;2022-10-15T09:36:08;3.35;;;1.60;;
67675;SDS011;54456;48.436;10.028;2022-10-15T09:39:20;2.47;;;1.20;;
67675;SDS011;54456;48.436;10.028;2022-10-15T09:42:57;3.25;;;1.02;;
67675;SDS011;54456;48.436;10.028;2022-10-15T09:44:32;4.55;;;1.50;;
67675;SDS011;54456;48.436;10.028;2022-10-15T09:47:39;2.43;;;1.20;;
67675;SDS011;54456;48.436;10.028;2022-10-15T09:49:12;2.35;;;1.10;;
67675;SDS011;54456;48.436;10.028;2022-10-15T09:54:19;3.43;;;1.00;;
67675;SDS011;54456;48.436;10.028;2022-10-15T09:57:35;3.38;;;1.02;;
67675;SDS011;54456;48.436;10.028;2022-10-15T09:59:10;5.38;;;1.00;;
67675;SDS011;54456;48.436;10.028;2022-10-15T10:00:58;1.60;;;1.08;;
67675;SDS011;54456;48.436;10.028;2022-10-15T10:02:29;2.63;;;1.08;;
67675;SDS011;54456;48.436;10.028;2022-10-15T10:04:19;3.40;;;1.13;;
67675;SDS011;54456;48.436;10.028;2022-10-15T10:05:50;3.30;;;1.10;;
67675;SDS011;54456;48.436;10.028;2022-10-15T10:07:34;3.72;;;1.23;;
67675;SDS011;54456;48.436;10.028;2022-10-15T10:09:11;2.90;;;1.20;;
67675;SDS011;54456;48.436;10.028;2022-10-15T10:10:53;3.50;;;1.10;;
67675;SDS011;54456;48.436;10.028;2022-10-15T10:12:28;1.70;;;0.93;;
67675;SDS011;54456;48.436;10.028;2022-10-15T10:14:00;2.22;;;1.05;;
67675;SDS011;54456;48.436;10.028;2022-10-15T10:15:34;4.68;;;1.58;;
67675;SDS011;54456;48.436;10.028;2022-10-15T10:17:06;3.38;;;1.13;;
67675;SDS011;54456;48.436;10.028;2022-10-15T10:18:43;1.98;;;1.02;;
67675;SDS011;54456;48.436;10.028;2022-10-15T10:20:20;3.03;;;1.40;;
67675;SDS011;54456;48.436;10.028;2022-10-15T10:21:52;4.55;;;1.30;;
67675;SDS011;54456;48.436;10.028;2022-10-15T10:23:42;1.70;;;1.00;;
67675;SDS011;54456;48.436;10.028;2022-10-15T10:26:56;3.65;;;1.30;;
67675;SDS011;54456;48.436;10.028;2022-10-15T10:30:06;5.25;;;1.65;;
67675;SDS011;54456;48.436;10.028;2022-10-15T10:31:37;2.70;;;1.50;;
67675;SDS011;54456;48.436;10.028;2022-10-15T10:33:12;3.25;;;1.42;;
67675;SDS011;54456;48.436;10.028;2022-10-15T10:34:44;3.53;;;1.35;;
67675;SDS011;54456;48.436;10.028;2022-10-15T10:36:18;4.32;;;1.33;;
67675;SDS011;54456;48.436;10.028;2022-10-15T10:37:50;4.80;;;1.20;;
67675;SDS011;54456;48.436;10.028;2022-10-15T10:41:02;2.97;;;1.30;;
67675;SDS011;54456;48.436;10.028;2022-10-15T10:42:39;3.70;;;1.15;;
67675;SDS011;54456;48.436;10.028;2022-10-15T10:44:16;5.00;;;1.63;;
67675;SDS011;54456;48.436;10.028;2022-10-15T10:45:56;4.53;;;1.40;;
67675;SDS011;54456;48.436;10.028;2022-10-15T10:47:26;4.43;;;1.15;;
67675;SDS011;54456;48.436;10.028;2022-10-15T10:49:05;1.95;;;1.08;;
67675;SDS011;54456;48.436;10.028;2022-10-15T10:50:35;5.30;;;1.15;;
67675;SDS011;54456;48.436;10.028;2022-10-15T10:53:59;2.05;;;1.02;;
67675;SDS011;54456;48.436;10.028;2022-10-15T10:55:36;2.58;;;1.00;;
67675;SDS011;54456;48.436;10.028;2022-10-15T10:57:09;2.20;;;1.20;;
67675;SDS011;54456;48.436;10.028;2022-10-15T10:58:41;2.95;;;1.20;;
67675;SDS011;54456;48.436;10.028;2022-10-15T11:00:13;1.90;;;1.13;;
67675;SDS011;54456;48.436;10.028;2022-10-15T11:01:50;3.13;;;1.13;;
67675;SDS011;54456;48.436;10.028;2022-10-15T11:03:25;2.92;;;1.20;;
67675;SDS011;54456;48.436;10.028;2022-10-15T11:04:58;2.25;;;1.02;;
67675;SDS011;54456;48.436;10.028;2022-10-15T11:08:30;3.83;;;1.10;;
67675;SDS011;54456;48.436;10.028;2022-10-15T11:11:50;2.72;;;1.30;;
67675;SDS011;54456;48.436;10.028;2022-10-15T11:13:48;3.63;;;1.20;;
67675;SDS011;54456;48.436;10.028;2022-10-15T11:15:29;4.22;;;1.20;;
67675;SDS011;54456;48.436;10.028;2022-10-15T11:25:30;5.00;;;1.33;;
67675;SDS011;54456;48.436;10.028;2022-10-15T11:27:11;3.50;;;1.10;;
67675;SDS011;54456;48.436;10.028;2022-10-15T11:28:52;2.63;;;1.20;;
67675;SDS011;54456;48.436;10.028;2022-10-15T11:38:11;4.32;;;1.10;;
67675;SDS011;54456;48.436;10.028;2022-10-15T11:47:09;2.42;;;1.20;;
67675;SDS011;54456;48.436;10.028;2022-10-15T11:52:43;4.00;;;1.10;;
67675;SDS011;54456;48.436;10.028;2022-10-15T11:56:12;4.28;;;1.10;;
67675;SDS011;54456;48.436;10.028;2022-10-15T11:57:44;4.72;;;1.23;;
67675;SDS011;54456;48.436;10.028;2022-10-15T11:59:18;3.33;;;1.20;;
67675;SDS011;54456;48.436;10.028;2022-10-15T12:01:00;2.22;;;1.10;;
67675;SDS011;54456;48.436;10.028;2022-10-15T12:02:36;2.60;;;1.20;;
67675;SDS011;54456;48.436;10.028;2022-10-15T12:05:44;4.00;;;1.30;;
67675;SDS011;54456;48.436;10.028;2022-10-15T12:07:21;3.65;;;1.20;;
67675;SDS011;54456;48.436;10.028;2022-10-15T12:08:53;4.95;;;1.30;;
67675;SDS011;54456;48.436;10.028;2022-10-15T12:14:04;8.68;;;3.40;;
67675;SDS011;54456;48.436;10.028;2022-10-15T12:19:18;2.88;;;1.35;;
67675;SDS011;54456;48.436;10.028;2022-10-15T12:20:50;11.82;;;4.47;;
67675;SDS011;54456;48.436;10.028;2022-10-15T12:22:34;6.38;;;2.42;;
67675;SDS011;54456;48.436;10.028;2022-10-15T12:29:37;4.30;;;1.30;;
67675;SDS011;54456;48.436;10.028;2022-10-15T12:31:07;3.35;;;1.30;;
67675;SDS011;54456;48.436;10.028;2022-10-15T12:34:25;3.28;;;1.42;;
67675;SDS011;54456;48.436;10.028;2022-10-15T12:36:02;4.95;;;1.35;;
67675;SDS011;54456;48.436;10.028;2022-10-15T12:37:57;3.25;;;1.35;;
67675;SDS011;54456;48.436;10.028;2022-10-15T12:39:39;4.65;;;1.80;;
67675;SDS011;54456;48.436;10.028;2022-10-15T12:41:11;3.38;;;1.30;;
67675;SDS011;54456;48.436;10.028;2022-10-15T12:42:42;3.33;;;1.40;;
67675;SDS011;54456;48.436;10.028;2022-10-15T12:46:04;4.28;;;1.40;;
67675;SDS011;54456;48.436;10.028;2022-10-15T12:47:46;2.78;;;1.20;;
67675;SDS011;54456;48.436;10.028;2022-10-15T12:56:50;3.90;;;1.38;;
67675;SDS011;54456;48.436;10.028;2022-10-15T13:00:46;2.58;;;1.20;;
67675;SDS011;54456;48.436;10.028;2022-10-15T13:01:52;2.97;;;1.05;;
67675;SDS011;54456;48.436;10.028;2022-10-15T13:03:43;1.75;;;1.17;;
67675;SDS011;54456;48.436;10.028;2022-10-15T13:07:00;2.28;;;1.20;;
67675;SDS011;54456;48.436;10.028;2022-10-15T13:08:32;3.00;;;1.30;;
67675;SDS011;54456;48.436;10.028;2022-10-15T13:10:03;3.10;;;1.38;;
67675;SDS011;54456;48.436;10.028;2022-10-15T13:13:05;4.53;;;1.40;;
67675;SDS011;54456;48.436;10.028;2022-10-15T13:14:40;3.28;;;1.25;;
67675;SDS011;54456;48.436;10.028;2022-10-15T13:16:15;2.80;;;1.17;;
67675;SDS011;54456;48.436;10.028;2022-10-15T13:17:46;4.22;;;1.17;;
67675;SDS011;54456;48.436;10.028;2022-10-15T13:19:20;2.85;;;1.20;;
67675;SDS011;54456;48.436;10.028;2022-10-15T13:20:53;3.53;;;1.20;;
67675;SDS011;54456;48.436;10.028;2022-10-15T13:22:26;3.70;;;1.23;;
67675;SDS011;54456;48.436;10.028;2022-10-15T13:23:58;4.53;;;1.20;;
67675;SDS011;54456;48.436;10.028;2022-10-15T13:25:28;2.97;;;1.20;;
67675;SDS011;54456;48.436;10.028;2022-10-15T13:26:59;5.20;;;1.20;;
67675;SDS011;54456;48.436;10.028;2022-10-15T13:28:33;3.47;;;1.30;;
67675;SDS011;54456;48.436;10.028;2022-10-15T13:31:38;3.10;;;1.20;;
67675;SDS011;54456;48.436;10.028;2022-10-15T13:33:09;5.63;;;2.05;;
67675;SDS011;54456;48.436;10.028;2022-10-15T13:34:41;4.20;;;1.40;;
67675;SDS011;54456;48.436;10.028;2022-10-15T13:36:22;4.13;;;1.33;;
67675;SDS011;54456;48.436;10.028;2022-10-15T13:37:57;3.50;;;1.50;;
67675;SDS011;54456;48.436;10.028;2022-10-15T13:39:37;3.45;;;1.30;;
67675;SDS011;54456;48.436;10.028;2022-10-15T13:41:08;3.67;;;1.52;;
67675;SDS011;54456;48.436;10.028;2022-10-15T13:42:39;3.83;;;1.25;;
67675;SDS011;54456;48.436;10.028;2022-10-15T13:44:30;4.07;;;1.45;;
67675;SDS011;54456;48.436;10.028;2022-10-15T13:46:00;3.83;;;1.30;;
67675;SDS011;54456;48.436;10.028;2022-10-15T13:47:35;3.72;;;1.38;;
67675;SDS011;54456;48.436;10.028;2022-10-15T13:49:10;3.70;;;1.33;;
67675;SDS011;54456;48.436;10.028;2022-10-15T13:50:45;2.55;;;1.20;;
67675;SDS011;54456;48.436;10.028;2022-10-15T13:52:16;4.72;;;1.40;;
67675;SDS011;54456;48.436;10.028;2022-10-15T13:53:46;4.38;;;1.33;;
67675;SDS011;54456;48.436;10.028;2022-10-15T13:55:18;3.28;;;1.42;;
67675;SDS011;54456;48.436;10.028;2022-10-15T13:56:54;3.25;;;1.35;;
67675;SDS011;54456;48.436;10.028;2022-10-15T13:58:32;4.70;;;1.33;;
67675;SDS011;54456;48.436;10.028;2022-10-15T14:00:03;3.72;;;1.42;;
67675;SDS011;54456;48.436;10.028;2022-10-15T14:01:34;4.20;;;1.30;;
67675;SDS011;54456;48.436;10.028;2022-10-15T14:04:39;4.18;;;1.23;;
67675;SDS011;54456;48.436;10.028;2022-10-15T14:06:16;2.42;;;1.25;;
67675;SDS011;54456;48.436;10.028;2022-10-15T14:07:56;5.97;;;1.30;;
67675;SDS011;54456;48.436;10.028;2022-10-15T14:09:28;2.35;;;1.15;;
67675;SDS011;54456;48.436;10.028;2022-10-15T14:11:01;3.33;;;1.33;;
67675;SDS011;54456;48.436;10.028;2022-10-15T14:12:31;3.65;;;1.27;;
67675;SDS011;54456;48.436;10.028;2022-10-15T14:14:01;3.80;;;1.40;;
67675;SDS011;54456;48.436;10.028;2022-10-15T14:18:57;3.03;;;1.20;;
67675;SDS011;54456;48.436;10.028;2022-10-15T14:20:35;3.63;;;1.30;;
67675;SDS011;54456;48.436;10.028;2022-10-15T14:22:06;3.60;;;1.27;;
67675;SDS011;54456;48.436;10.028;2022-10-15T14:23:36;3.20;;;1.35;;
67675;SDS011;54456;48.436;10.028;2022-10-15T14:25:07;3.55;;;1.33;;
67675;SDS011;54456;48.436;10.028;2022-10-15T14:26:38;3.78;;;1.20;;
67675;SDS011;54456;48.436;10.028;2022-10-15T14:28:16;4.32;;;1.50;;
67675;SDS011;54456;48.436;10.028;2022-10-15T14:29:49;4.25;;;1.40;;
67675;SDS011;54456;48.436;10.028;2022-10-15T14:31:32;4.90;;;1.50;;
67675;SDS011;54456;48.436;10.028;2022-10-15T14:33:27;5.53;;;1.48;;
67675;SDS011;54456;48.436;10.028;2022-10-15T14:35:01;4.60;;;1.48;;
67675;SDS011;54456;48.436;10.028;2022-10-15T14:36:40;6.05;;;1.48;;
67675;SDS011;54456;48.436;10.028;2022-10-15T14:39:46;4.03;;;1.60;;
67675;SDS011;54456;48.436;10.028;2022-10-15T14:41:24;2.72;;;1.40;;
67675;SDS011;54456;48.436;10.028;2022-10-15T14:46:14;2.85;;;1.30;;
67675;SDS011;54456;48.436;10.028;2022-10-15T14:47:47;4.20;;;1.70;;
67675;SDS011;54456;48.436;10.028;2022-10-15T14:49:32;4.68;;;1.58;;
67675;SDS011;54456;48.436;10.028;2022-10-15T14:51:04;4.28;;;1.50;;
67675;SDS011;54456;48.436;10.028;2022-10-15T14:52:42;4.20;;;1.25;;
67675;SDS011;54456;48.436;10.028;2022-10-15T14:54:17;3.67;;;1.40;;
67675;SDS011;54456;48.436;10.028;2022-10-15T14:55:58;3.53;;;1.58;;
67675;SDS011;54456;48.436;10.028;2022-10-15T14:57:33;2.90;;;1.40;;
67675;SDS011;54456;48.436;10.028;2022-10-15T14:59:12;3.08;;;1.40;;
67675;SDS011;54456;48.436;10.028;2022-10-15T15:00:46;3.72;;;1.50;;
67675;SDS011;54456;48.436;10.028;2022-10-15T15:02:18;3.45;;;1.50;;
67675;SDS011;54456;48.436;10.028;2022-10-15T15:03:57;5.05;;;1.58;;
67675;SDS011;54456;48.436;10.028;2022-10-15T15:05:28;5.25;;;1.40;;
67675;SDS011;54456;48.436;10.028;2022-10-15T15:06:59;5.22;;;1.63;;
67675;SDS011;54456;48.436;10.028;2022-10-15T15:08:29;4.55;;;1.52;;
67675;SDS011;54456;48.436;10.028;2022-10-15T15:10:00;3.95;;;1.98;;
67675;SDS011;54456;48.436;10.028;2022-10-15T15:11:30;5.15;;;2.10;;
67675;SDS011;54456;48.436;10.028;2022-10-15T15:13:00;4.20;;;1.60;;
67675;SDS011;54456;48.436;10.028;2022-10-15T15:14:31;5.28;;;1.60;;
67675;SDS011;54456;48.436;10.028;2022-10-15T15:16:01;5.05;;;1.65;;
67675;SDS011;54456;48.436;10.028;2022-10-15T15:17:32;4.30;;;1.83;;
67675;SDS011;54456;48.436;10.028;2022-10-15T15:19:06;3.92;;;1.70;;
67675;SDS011;54456;48.436;10.028;2022-10-15T15:20:38;7.18;;;1.70;;
67675;SDS011;54456;48.436;10.028;2022-10-15T15:22:10;4.22;;;1.58;;
67675;SDS011;54456;48.436;10.028;2022-10-15T15:23:41;4.05;;;1.70;;
67675;SDS011;54456;48.436;10.028;2022-10-15T15:25:13;3.35;;;1.42;;
67675;SDS011;54456;48.436;10.028;2022-10-15T15:26:46;5.10;;;1.73;;
67675;SDS011;54456;48.436;10.028;2022-10-15T15:28:17;4.40;;;1.60;;
67675;SDS011;54456;48.436;10.028;2022-10-15T15:29:49;3.13;;;1.40;;
67675;SDS011;54456;48.436;10.028;2022-10-15T15:31:20;5.18;;;2.00;;
67675;SDS011;54456;48.436;10.028;2022-10-15T15:32:50;5.57;;;2.22;;
67675;SDS011;54456;48.436;10.028;2022-10-15T15:34:21;3.50;;;1.65;;
67675;SDS011;54456;48.436;10.028;2022-10-15T15:35:54;5.45;;;1.80;;
67675;SDS011;54456;48.436;10.028;2022-10-15T15:37:30;7.50;;;1.85;;
67675;SDS011;54456;48.436;10.028;2022-10-15T15:39:00;4.47;;;2.05;;
67675;SDS011;54456;48.436;10.028;2022-10-15T15:40:30;4.30;;;1.70;;
67675;SDS011;54456;48.436;10.028;2022-10-15T15:42:01;6.68;;;1.80;;
67675;SDS011;54456;48.436;10.028;2022-10-15T15:43:31;3.88;;;1.65;;
67675;SDS011;54456;48.436;10.028;2022-10-15T15:45:02;4.45;;;1.80;;
67675;SDS011;54456;48.436;10.028;2022-10-15T15:46:33;5.82;;;1.90;;
67675;SDS011;54456;48.436;10.028;2022-10-15T15:48:03;6.27;;;2.00;;
67675;SDS011;54456;48.436;10.028;2022-10-15T15:49:34;7.15;;;2.03;;
67675;SDS011;54456;48.436;10.028;2022-10-15T15:51:26;7.15;;;2.22;;
67675;SDS011;54456;48.436;10.028;2022-10-15T15:52:56;6.90;;;2.20;;
67675;SDS011;54456;48.436;10.028;2022-10-15T15:54:27;5.50;;;1.90;;
67675;SDS011;54456;48.436;10.028;2022-10-15T15:55:57;5.47;;;2.03;;
67675;SDS011;54456;48.436;10.028;2022-10-15T15:57:27;7.55;;;2.00;;
67675;SDS011;54456;48.436;10.028;2022-10-15T15:58:58;4.93;;;2.20;;
67675;SDS011;54456;48.436;10.028;2022-10-15T16:00:31;7.10;;;2.10;;
67675;SDS011;54456;48.436;10.028;2022-10-15T16:02:02;6.95;;;1.98;;
67675;SDS011;54456;48.436;10.028;2022-10-15T16:03:32;8.18;;;2.10;;
67675;SDS011;54456;48.436;10.028;2022-10-15T16:05:06;6.13;;;2.00;;
67675;SDS011;54456;48.436;10.028;2022-10-15T16:06:38;5.78;;;2.10;;
67675;SDS011;54456;48.436;10.028;2022-10-15T16:08:09;5.45;;;1.90;;
67675;SDS011;54456;48.436;10.028;2022-10-15T16:09:40;5.75;;;2.17;;
67675;SDS011;54456;48.436;10.028;2022-10-15T16:11:10;5.65;;;2.05;;
67675;SDS011;54456;48.436;10.028;2022-10-15T16:12:41;5.13;;;1.80;;
67675;SDS011;54456;48.436;10.028;2022-10-15T16:14:14;8.02;;;1.90;;
67675;SDS011;54456;48.436;10.028;2022-10-15T16:15:45;6.93;;;2.25;;
67675;SDS011;54456;48.436;10.028;2022-10-15T16:17:16;5.65;;;1.90;;
67675;SDS011;54456;48.436;10.028;2022-10-15T16:18:47;6.50;;;1.90;;
67675;SDS011;54456;48.436;10.028;2022-10-15T16:20:17;4.53;;;2.00;;
67675;SDS011;54456;48.436;10.028;2022-10-15T16:21:48;5.45;;;1.92;;
67675;SDS011;54456;48.436;10.028;2022-10-15T16:23:18;5.07;;;1.90;;
67675;SDS011;54456;48.436;10.028;2022-10-15T16:24:49;4.70;;;1.80;;
67675;SDS011;54456;48.436;10.028;2022-10-15T16:26:19;5.20;;;2.30;;
67675;SDS011;54456;48.436;10.028;2022-10-15T16:27:50;6.35;;;2.13;;
67675;SDS011;54456;48.436;10.028;2022-10-15T16:29:25;7.07;;;2.08;;
67675;SDS011;54456;48.436;10.028;2022-10-15T16:31:11;6.70;;;2.10;;
67675;SDS011;54456;48.436;10.028;2022-10-15T16:32:45;5.18;;;1.95;;
67675;SDS011;54456;48.436;10.028;2022-10-15T16:34:16;6.27;;;2.10;;
67675;SDS011;54456;48.436;10.028;2022-10-15T16:35:50;4.78;;;2.10;;
67675;SDS011;54456;48.436;10.028;2022-10-15T16:37:21;7.43;;;2.50;;
67675;SDS011;54456;48.436;10.028;2022-10-15T16:38:52;7.18;;;2.20;;
67675;SDS011;54456;48.436;10.028;2022-10-15T16:40:25;5.47;;;2.00;;
67675;SDS011;54456;48.436;10.028;2022-10-15T16:41:56;5.50;;;2.00;;
67675;SDS011;54456;48.436;10.028;2022-10-15T16:43:26;6.22;;;3.03;;
67675;SDS011;54456;48.436;10.028;2022-10-15T16:44:57;6.03;;;2.30;;
67675;SDS011;54456;48.436;10.028;2022-10-15T16:46:27;7.13;;;3.35;;
67675;SDS011;54456;48.436;10.028;2022-10-15T16:47:57;6.63;;;3.00;;
67675;SDS011;54456;48.436;10.028;2022-10-15T16:49:28;8.10;;;2.53;;
67675;SDS011;54456;48.436;10.028;2022-10-15T16:51:02;7.73;;;2.60;;
67675;SDS011;54456;48.436;10.028;2022-10-15T16:52:36;6.88;;;2.55;;
67675;SDS011;54456;48.436;10.028;2022-10-15T16:54:09;7.97;;;2.75;;
67675;SDS011;54456;48.436;10.028;2022-10-15T16:55:41;7.65;;;2.40;;
67675;SDS011;54456;48.436;10.028;2022-10-15T16:57:11;5.43;;;2.23;;
67675;SDS011;54456;48.436;10.028;2022-10-15T16:58:42;4.57;;;2.03;;
67675;SDS011;54456;48.436;10.028;2022-10-15T17:00:12;7.32;;;2.30;;
67675;SDS011;54456;48.436;10.028;2022-10-15T17:01:43;6.43;;;2.45;;
67675;SDS011;54456;48.436;10.028;2022-10-15T17:03:16;6.70;;;2.13;;
67675;SDS011;54456;48.436;10.028;2022-10-15T17:04:46;9.48;;;2.40;;
67675;SDS011;54456;48.436;10.028;2022-10-15T17:06:18;6.32;;;2.80;;
67675;SDS011;54456;48.436;10.028;2022-10-15T17:07:52;6.63;;;2.22;;
67675;SDS011;54456;48.436;10.028;2022-10-15T17:09:23;7.93;;;2.58;;
67675;SDS011;54456;48.436;10.028;2022-10-15T17:10:53;7.35;;;2.60;;
67675;SDS011;54456;48.436;10.028;2022-10-15T17:12:24;7.15;;;2.63;;
67675;SDS011;54456;48.436;10.028;2022-10-15T17:13:58;5.67;;;2.40;;
67675;SDS011;54456;48.436;10.028;2022-10-15T17:15:30;7.25;;;2.80;;
67675;SDS011;54456;48.436;10.028;2022-10-15T17:17:00;6.43;;;2.50;;
67675;SDS011;54456;48.436;10.028;2022-10-15T17:18:31;5.75;;;2.85;;
67675;SDS011;54456;48.436;10.028;2022-10-15T17:20:03;5.53;;;2.45;;
67675;SDS011;54456;48.436;10.028;2022-10-15T17:21:34;10.48;;;3.53;;
67675;SDS011;54456;48.436;10.028;2022-10-15T17:23:05;7.47;;;2.90;;
67675;SDS011;54456;48.436;10.028;2022-10-15T17:24:35;7.22;;;3.03;;
67675;SDS011;54456;48.436;10.028;2022-10-15T17:26:07;9.47;;;2.93;;
67675;SDS011;54456;48.436;10.028;2022-10-15T17:27:39;7.72;;;3.00;;
67675;SDS011;54456;48.436;10.028;2022-10-15T17:29:11;8.07;;;2.83;;
67675;SDS011;54456;48.436;10.028;2022-10-15T17:30:46;7.18;;;2.53;;
67675;SDS011;54456;48.436;10.028;2022-10-15T17:32:19;7.55;;;2.58;;
67675;SDS011;54456;48.436;10.028;2022-10-15T17:33:53;6.77;;;2.43;;
67675;SDS011;54456;48.436;10.028;2022-10-15T17:35:36;6.95;;;2.72;;
67675;SDS011;54456;48.436;10.028;2022-10-15T17:37:07;7.88;;;2.63;;
67675;SDS011;54456;48.436;10.028;2022-10-15T17:38:37;8.55;;;3.83;;
67675;SDS011;54456;48.436;10.028;2022-10-15T17:40:08;7.63;;;2.65;;
67675;SDS011;54456;48.436;10.028;2022-10-15T17:41:38;6.30;;;2.70;;
67675;SDS011;54456;48.436;10.028;2022-10-15T17:43:09;6.90;;;2.55;;
67675;SDS011;54456;48.436;10.028;2022-10-15T17:44:39;5.30;;;2.50;;
67675;SDS011;54456;48.436;10.028;2022-10-15T17:46:14;6.37;;;2.40;;
67675;SDS011;54456;48.436;10.028;2022-10-15T17:47:46;7.95;;;2.80;;
67675;SDS011;54456;48.436;10.028;2022-10-15T17:49:16;7.97;;;2.93;;
67675;SDS011;54456;48.436;10.028;2022-10-15T17:50:47;7.07;;;2.72;;
67675;SDS011;54456;48.436;10.028;2022-10-15T17:52:18;7.63;;;2.83;;
67675;SDS011;54456;48.436;10.028;2022-10-15T17:53:49;7.28;;;2.85;;
67675;SDS011;54456;48.436;10.028;2022-10-15T17:55:20;7.05;;;2.75;;
67675;SDS011;54456;48.436;10.028;2022-10-15T17:56:50;7.85;;;2.85;;
67675;SDS011;54456;48.436;10.028;2022-10-15T17:58:21;7.00;;;3.13;;
67675;SDS011;54456;48.436;10.028;2022-10-15T17:59:52;14.77;;;5.80;;
67675;SDS011;54456;48.436;10.028;2022-10-15T18:01:27;8.60;;;4.10;;
67675;SDS011;54456;48.436;10.028;2022-10-15T18:02:59;15.10;;;5.60;;
67675;SDS011;54456;48.436;10.028;2022-10-15T18:04:32;8.82;;;3.60;;
67675;SDS011;54456;48.436;10.028;2022-10-15T18:06:06;8.57;;;3.72;;
67675;SDS011;54456;48.436;10.028;2022-10-15T18:07:40;8.93;;;3.60;;
67675;SDS011;54456;48.436;10.028;2022-10-15T18:09:10;10.38;;;3.53;;
67675;SDS011;54456;48.436;10.028;2022-10-15T18:10:41;9.77;;;4.93;;
67675;SDS011;54456;48.436;10.028;2022-10-15T18:12:14;9.23;;;4.35;;
67675;SDS011;54456;48.436;10.028;2022-10-15T18:13:44;9.30;;;4.50;;
67675;SDS011;54456;48.436;10.028;2022-10-15T18:15:15;10.32;;;5.38;;
67675;SDS011;54456;48.436;10.028;2022-10-15T18:16:45;8.18;;;4.30;;
67675;SDS011;54456;48.436;10.028;2022-10-15T18:18:16;10.02;;;5.10;;
67675;SDS011;54456;48.436;10.028;2022-10-15T18:19:46;8.82;;;4.35;;
67675;SDS011;54456;48.436;10.028;2022-10-15T18:21:18;11.13;;;4.90;;
67675;SDS011;54456;48.436;10.028;2022-10-15T18:22:49;10.80;;;4.65;;
67675;SDS011;54456;48.436;10.028;2022-10-15T18:24:20;9.55;;;4.18;;
67675;SDS011;54456;48.436;10.028;2022-10-15T18:25:59;7.45;;;3.63;;
67675;SDS011;54456;48.436;10.028;2022-10-15T18:27:42;9.68;;;4.00;;
67675;SDS011;54456;48.436;10.028;2022-10-15T18:29:12;13.00;;;4.95;;
67675;SDS011;54456;48.436;10.028;2022-10-15T18:30:43;11.88;;;5.00;;
67675;SDS011;54456;48.436;10.028;2022-10-15T18:32:13;11.60;;;4.68;;
67675;SDS011;54456;48.436;10.028;2022-10-15T18:33:45;12.38;;;5.00;;
67675;SDS011;54456;48.436;10.028;2022-10-15T18:35:20;13.35;;;4.72;;
67675;SDS011;54456;48.436;10.028;2022-10-15T18:36:51;11.45;;;4.53;;
67675;SDS011;54456;48.436;10.028;2022-10-15T18:38:21;12.80;;;5.00;;
67675;SDS011;54456;48.436;10.028;2022-10-15T18:39:51;9.10;;;4.07;;
67675;SDS011;54456;48.436;10.028;2022-10-15T18:43:01;8.20;;;4.00;;
67675;SDS011;54456;48.436;10.028;2022-10-15T18:44:33;12.27;;;5.05;;
67675;SDS011;54456;48.436;10.028;2022-10-15T18:46:03;14.00;;;4.88;;
67675;SDS011;54456;48.436;10.028;2022-10-15T18:47:33;14.15;;;4.63;;
67675;SDS011;54456;48.436;10.028;2022-10-15T18:49:04;16.48;;;5.03;;
67675;SDS011;54456;48.436;10.028;2022-10-15T18:50:34;21.83;;;5.78;;
67675;SDS011;54456;48.436;10.028;2022-10-15T18:52:05;13.98;;;5.47;;
67675;SDS011;54456;48.436;10.028;2022-10-15T18:53:38;12.20;;;4.72;;
67675;SDS011;54456;48.436;10.028;2022-10-15T18:55:09;14.38;;;5.10;;
67675;SDS011;54456;48.436;10.028;2022-10-15T18:56:42;11.85;;;5.18;;
67675;SDS011;54456;48.436;10.028;2022-10-15T18:58:12;13.40;;;5.85;;
67675;SDS011;54456;48.436;10.028;2022-10-15T18:59:42;12.80;;;4.70;;
67675;SDS011;54456;48.436;10.028;2022-10-15T19:01:29;12.75;;;4.97;;
67675;SDS011;54456;48.436;10.028;2022-10-15T19:03:02;10.90;;;4.15;;
67675;SDS011;54456;48.436;10.028;2022-10-15T19:04:33;11.95;;;4.60;;
67675;SDS011;54456;48.436;10.028;2022-10-15T19:06:03;10.97;;;4.63;;
67675;SDS011;54456;48.436;10.028;2022-10-15T19:07:34;11.05;;;4.18;;
67675;SDS011;54456;48.436;10.028;2022-10-15T19:09:05;10.70;;;3.80;;
67675;SDS011;54456;48.436;10.028;2022-10-15T19:10:40;10.95;;;4.20;;
67675;SDS011;54456;48.436;10.028;2022-10-15T19:12:11;10.90;;;4.00;;
67675;SDS011;54456;48.436;10.028;2022-10-15T19:13:41;9.13;;;4.32;;
67675;SDS011;54456;48.436;10.028;2022-10-15T19:15:12;10.73;;;4.80;;
67675;SDS011;54456;48.436;10.028;2022-10-15T19:16:43;12.10;;;5.80;;
67675;SDS011;54456;48.436;10.028;2022-10-15T19:18:13;11.52;;;4.78;;
67675;SDS011;54456;48.436;10.028;2022-10-15T19:19:46;10.27;;;4.50;;
67675;SDS011;54456;48.436;10.028;2022-10-15T19:21:19;10.07;;;4.53;;
67675;SDS011;54456;48.436;10.028;2022-10-15T19:22:50;8.80;;;4.00;;
67675;SDS011;54456;48.436;10.028;2022-10-15T19:24:20;7.97;;;3.90;;
67675;SDS011;54456;48.436;10.028;2022-10-15T19:25:51;9.05;;;4.28;;
67675;SDS011;54456;48.436;10.028;2022-10-15T19:27:21;9.90;;;4.20;;
67675;SDS011;54456;48.436;10.028;2022-10-15T19:28:52;9.93;;;4.63;;
67675;SDS011;54456;48.436;10.028;2022-10-15T19:30:22;9.45;;;4.30;;
67675;SDS011;54456;48.436;10.028;2022-10-15T19:31:52;8.38;;;4.20;;
67675;SDS011;54456;48.436;10.028;2022-10-15T19:33:28;8.32;;;3.85;;
67675;SDS011;54456;48.436;10.028;2022-10-15T19:34:59;11.40;;;4.80;;
67675;SDS011;54456;48.436;10.028;2022-10-15T19:36:34;10.52;;;4.70;;
67675;SDS011;54456;48.436;10.028;2022-10-15T19:38:08;8.82;;;3.80;;
67675;SDS011;54456;48.436;10.028;2022-10-15T19:39:38;10.18;;;4.13;;
67675;SDS011;54456;48.436;10.028;2022-10-15T19:41:10;7.68;;;3.83;;
67675;SDS011;54456;48.436;10.028;2022-10-15T19:42:40;10.00;;;4.67;;
67675;SDS011;54456;48.436;10.028;2022-10-15T19:44:11;9.43;;;4.22;;
67675;SDS011;54456;48.436;10.028;2022-10-15T19:45:43;9.52;;;3.97;;
67675;SDS011;54456;48.436;10.028;2022-10-15T19:47:14;11.20;;;4.05;;
67675;SDS011;54456;48.436;10.028;2022-10-15T19:48:48;9.80;;;4.53;;
67675;SDS011;54456;48.436;10.028;2022-10-15T19:50:18;14.63;;;5.43;;
67675;SDS011;54456;48.436;10.028;2022-10-15T19:51:51;13.95;;;5.30;;